Time;durP1;ratioP1;P1;durP2;ratioP2;P2;SDS_P1;SDS_P2;PMS_P1;PMS_P2;Temp;Humidity;BMP_temperature;BMP_pressure;BME280_temperature;BME280_humidity;BME280_pressure;Samples;Min_cycle;Max_cycle;Signal;HPM_P1;HPM_P2
2022/09/14 00:01:39;;;;;;;0.50;0.50;;;;;;;14.69;74.95;98729.97;4501936;31;34388;-67
2022/09/14 00:04:11;;;;;;;0.47;0.47;;;;;;;14.28;76.46;98730.53;4501997;31;34358;-68
2022/09/14 00:06:40;;;;;;;0.30;0.30;;;;;;;14.94;74.44;98730.72;4500775;31;34735;-69
2022/09/14 00:09:13;;;;;;;0.40;0.40;;;;;;;15.16;72.67;98730.75;4487946;31;35025;-68
2022/09/14 00:11:41;;;;;;;0.57;0.57;;;;;;;15.08;72.76;98743.31;4486734;31;34374;-67
2022/09/14 00:14:09;;;;;;;0.32;0.32;;;;;;;15.02;72.78;98740.94;4500465;31;32767;-68
2022/09/14 00:16:39;;;;;;;1.25;1.15;;;;;;;14.82;73.72;98746.06;4500001;31;34743;-68
2022/09/14 00:19:22;;;;;;;0.68;0.68;;;;;;;14.74;74.31;98743.75;4487722;31;34947;-68
2022/09/14 00:21:56;;;;;;;0.95;0.95;;;;;;;14.82;73.51;98741.66;4501908;31;34393;-67
2022/09/14 00:24:25;;;;;;;0.30;0.30;;;;;;;14.70;74.19;98736.88;4487671;31;33400;-68
2022/09/14 00:26:54;;;;;;;0.30;0.30;;;;;;;14.02;76.75;98723.56;4486354;31;33778;-67
2022/09/14 00:29:22;;;;;;;0.30;0.30;;;;;;;14.30;77.22;98727.84;4500829;31;35140;-67
2022/09/14 00:31:50;;;;;;;0.35;0.35;;;;;;;14.71;74.93;98728.13;4500575;31;35327;-67
2022/09/14 00:34:18;;;;;;;0.43;0.43;;;;;;;14.70;74.69;98731.66;4501695;31;34254;-68
2022/09/14 00:36:48;;;;;;;1.48;1.27;;;;;;;14.68;74.91;98733.47;4499765;31;33898;-68
2022/09/14 00:39:17;;;;;;;0.40;0.40;;;;;;;14.50;75.86;98730.59;4501938;31;34926;-68
2022/09/14 00:41:47;;;;;;;0.70;0.70;;;;;;;14.46;75.22;98729.00;4487489;31;34125;-67
2022/09/14 00:44:15;;;;;;;0.82;0.80;;;;;;;14.49;75.33;98739.38;4501631;31;33355;-68
2022/09/14 00:46:47;;;;;;;0.37;0.37;;;;;;;14.52;74.88;98726.13;4491924;31;33933;-67
2022/09/14 00:49:17;;;;;;;1.65;0.60;;;;;;;14.48;74.85;98732.41;4485196;32;35074;-68
2022/09/14 00:51:57;;;;;;;0.32;0.32;;;;;;;14.05;77.13;98726.09;4471816;32;34492;-68
2022/09/14 00:54:25;;;;;;;0.40;0.40;;;;;;;14.60;74.69;98713.66;4471805;32;33435;-68
2022/09/14 00:56:53;;;;;;;1.50;1.40;;;;;;;14.57;74.20;98710.25;4496841;31;34703;-68
2022/09/14 00:59:25;;;;;;;1.73;1.52;;;;;;;13.74;78.10;98708.81;4487146;31;34998;-68
2022/09/14 01:01:53;;;;;;;0.40;0.40;;;;;;;13.39;80.62;98708.22;4498806;31;35142;-74
2022/09/14 01:04:21;;;;;;;0.40;0.40;;;;;;;14.12;77.90;98704.03;4494888;31;33332;-75
2022/09/14 01:07:00;;;;;;;0.60;0.60;;;;;;;14.47;76.01;98704.53;4492034;31;34081;-73
2022/09/14 01:09:58;;;;;;;0.70;0.70;;;;;;;14.29;75.95;98707.81;4488807;31;35139;-68
2022/09/14 01:12:47;;;;;;;0.80;0.80;;;;;;;14.28;76.46;98700.88;4499814;31;35107;-76
2022/09/14 01:15:21;;;;;;;0.30;0.30;;;;;;;14.37;76.16;98708.38;4499294;31;33492;-75
2022/09/14 01:18:11;;;;;;;0.32;0.32;;;;;;;14.46;75.44;98701.97;4485746;31;33892;-68
2022/09/14 01:20:44;;;;;;;0.90;0.73;;;;;;;13.75;77.98;98700.06;4500029;31;35164;-68
2022/09/14 01:23:13;;;;;;;15.48;6.60;;;;;;;13.80;79.74;98692.91;4487004;31;34513;-68
2022/09/14 01:25:59;;;;;;;1.50;1.40;;;;;;;14.38;76.08;98699.59;4485778;31;33641;-69
2022/09/14 01:28:46;;;;;;;3.70;2.25;;;;;;;14.46;75.11;98694.94;4486849;31;34777;-68
2022/09/14 01:31:26;;;;;;;0.40;0.40;;;;;;;14.13;77.30;98692.63;4486838;31;34844;-67
2022/09/14 01:34:15;;;;;;;0.37;0.37;;;;;;;14.64;74.46;98689.97;4485874;31;35113;-68
2022/09/14 01:36:47;;;;;;;0.50;0.50;;;;;;;14.44;74.77;98688.06;4498172;31;34293;-68
2022/09/14 01:39:15;;;;;;;0.62;0.62;;;;;;;14.22;75.72;98684.47;4485802;31;35148;-68
2022/09/14 01:41:44;;;;;;;0.52;0.52;;;;;;;14.37;74.94;98676.97;4473672;31;35790;-68
2022/09/14 01:44:20;;;;;;;0.50;0.50;;;;;;;14.38;75.44;98684.75;4486677;31;35266;-75
2022/09/14 01:46:52;;;;;;;0.75;0.75;;;;;;;14.05;75.98;98676.34;4485033;31;34196;-74
2022/09/14 01:49:31;;;;;;;0.55;0.55;;;;;;;14.24;76.60;98671.28;4486660;31;33803;-68
2022/09/14 01:52:03;;;;;;;0.70;0.70;;;;;;;14.46;74.81;98675.75;4483948;32;36187;-68
2022/09/14 01:54:40;;;;;;;1.27;1.20;;;;;;;14.23;75.22;98667.81;4484888;32;34608;-68
2022/09/14 01:57:15;;;;;;;;;;;;;;;14.16;75.78;98662.88;4496930;31;34294;-77
2022/09/14 01:59:45;;;;;;;1.40;1.30;;;;;;;13.80;78.13;98658.91;4486767;31;34199;-76
2022/09/14 02:02:19;;;;;;;0.37;0.37;;;;;;;14.18;76.99;98654.03;4501475;31;35925;-68
2022/09/14 02:04:52;;;;;;;0.37;0.37;;;;;;;14.38;75.37;98647.22;4488769;31;34399;-68
2022/09/14 02:07:19;;;;;;;0.45;0.45;;;;;;;13.65;78.40;98647.19;4501162;31;33572;-75
2022/09/14 02:09:48;;;;;;;0.40;0.40;;;;;;;14.10;76.99;98640.41;4502767;31;34056;-75
2022/09/14 02:12:16;;;;;;;0.60;0.60;;;;;;;14.30;75.52;98634.41;4488320;31;35337;-76
2022/09/14 02:14:45;;;;;;;0.60;0.60;;;;;;;14.28;75.38;98633.62;4501789;31;34352;-74
2022/09/14 02:17:13;;;;;;;1.23;1.20;;;;;;;14.41;74.54;98629.63;4487042;31;34127;-68
2022/09/14 02:19:46;;;;;;;3.03;1.95;;;;;;;13.52;78.04;98626.72;4502820;31;34832;-67
2022/09/14 02:22:14;;;;;;;0.30;0.30;;;;;;;13.06;82.04;98626.50;4487202;31;35044;-68
2022/09/14 02:24:41;;;;;;;0.50;0.50;;;;;;;13.49;81.71;98629.47;4502647;31;34548;-68
2022/09/14 02:27:09;;;;;;;0.90;0.90;;;;;;;14.08;77.77;98616.00;4501317;31;33583;-69
2022/09/14 02:29:37;;;;;;;0.62;0.62;;;;;;;13.96;77.10;98619.06;4501356;31;34038;-68
2022/09/14 02:32:21;;;;;;;0.30;0.30;;;;;;;13.65;78.04;98620.19;4501545;31;34806;-69
2022/09/14 02:35:07;;;;;;;1.35;1.30;;;;;;;13.01;82.86;98618.78;4488669;31;34393;-68
2022/09/14 02:38:26;;;;;;;0.77;0.68;;;;;;;13.71;79.73;98619.97;4485741;31;34294;-74
2022/09/14 02:41:09;;;;;;;0.40;0.40;;;;;;;13.20;81.34;98624.28;4452556;32;33866;-68
2022/09/14 02:43:44;;;;;;;0.30;0.30;;;;;;;13.41;79.96;98622.75;4486734;32;34961;-68
2022/09/14 02:46:56;;;;;;;0.40;0.40;;;;;;;14.08;77.24;98620.41;4491643;31;34445;-68
2022/09/14 02:49:50;;;;;;;0.82;0.82;;;;;;;14.42;75.18;98606.91;4498845;31;33308;-68
2022/09/14 02:52:27;;;;;;;0.60;0.60;;;;;;;14.29;75.49;98595.19;4488373;31;34018;-68
2022/09/14 02:55:02;;;;;;;1.05;1.05;;;;;;;13.72;78.52;98600.75;4486967;31;35970;-67
2022/09/14 02:57:30;;;;;;;1.43;1.33;;;;;;;13.61;81.61;98608.97;4486725;31;34213;-68
2022/09/14 02:59:58;;;;;;;0.45;0.45;;;;;;;13.07;84.63;98602.91;4502356;31;34238;-68
2022/09/14 03:02:25;;;;;;;4.03;1.00;;;;;;;13.83;80.98;98598.59;4502336;31;33993;-68
2022/09/14 03:04:54;;;;;;;0.93;0.60;;;;;;;14.20;79.43;98591.16;4502192;31;35331;-68
2022/09/14 03:07:21;;;;;;;0.52;0.52;;;;;;;13.46;83.80;98592.06;4499687;31;34529;-73
2022/09/14 03:09:49;;;;;;;0.30;0.30;;;;;;;13.46;85.66;98596.41;4488897;31;33338;-68
2022/09/14 03:12:17;;;;;;;0.30;0.30;;;;;;;14.42;81.72;98599.06;4500626;31;34628;-68
2022/09/14 03:14:44;;;;;;;0.32;0.32;;;;;;;14.49;80.75;98597.91;4502438;31;34914;-68
2022/09/14 03:17:12;;;;;;;2.22;1.15;;;;;;;13.82;84.06;98602.12;4489196;31;35241;-68
2022/09/14 03:19:40;;;;;;;0.50;0.50;;;;;;;13.78;82.56;98603.16;4486772;32;34330;-68
2022/09/14 03:22:08;;;;;;;3.20;1.75;;;;;;;13.98;82.06;98586.72;4486479;32;34836;-68
2022/09/14 03:24:36;;;;;;;0.73;0.70;;;;;;;14.53;79.94;98596.03;4492218;31;34931;-68
2022/09/14 03:27:04;;;;;;;0.65;0.65;;;;;;;13.98;82.71;98593.72;4501125;31;34376;-70
2022/09/14 03:29:31;;;;;;;0.90;0.90;;;;;;;14.70;79.85;98587.53;4502106;31;33301;-68
2022/09/14 03:31:59;;;;;;;0.30;0.30;;;;;;;15.22;76.98;98582.78;4502059;31;34096;-76
2022/09/14 03:34:27;;;;;;;0.35;0.35;;;;;;;15.35;76.34;98585.72;4502174;31;36068;-68
2022/09/14 03:36:55;;;;;;;0.55;0.55;;;;;;;15.52;75.77;98579.78;4493604;31;34469;-68
2022/09/14 03:39:23;;;;;;;0.30;0.30;;;;;;;15.51;76.04;98583.31;4485920;31;33651;-74
2022/09/14 03:41:51;;;;;;;0.37;0.37;;;;;;;15.08;78.66;98587.75;4487969;31;33459;-68
2022/09/14 03:44:18;;;;;;;0.45;0.45;;;;;;;14.48;81.99;98601.44;4502117;31;35103;-68
2022/09/14 03:46:46;;;;;;;0.37;0.37;;;;;;;14.14;84.83;98596.63;4500524;31;34417;-68
2022/09/14 03:49:14;;;;;;;0.60;0.60;;;;;;;14.33;84.71;98591.53;4502203;31;33211;-68
2022/09/14 03:51:42;;;;;;;0.30;0.30;;;;;;;14.79;80.39;98595.03;4502015;31;34695;-68
2022/09/14 03:54:10;;;;;;;0.60;0.60;;;;;;;15.33;78.63;98595.44;4500881;31;35090;-68
2022/09/14 03:56:38;;;;;;;0.57;0.57;;;;;;;15.03;79.02;98598.41;4500184;31;34460;-69
2022/09/14 03:59:08;;;;;;;1.30;1.20;;;;;;;15.20;79.29;98600.34;4500993;31;33537;-68
2022/09/14 04:01:37;;;;;;;0.20;0.20;;;;;;;15.17;78.73;98593.44;4502041;31;33963;-68
2022/09/14 04:04:05;;;;;;;0.30;0.30;;;;;;;15.68;75.89;98596.56;4501946;31;35950;-68
2022/09/14 04:06:32;;;;;;;1.40;0.80;;;;;;;15.79;74.58;98592.66;4500581;31;34316;-71
2022/09/14 04:09:00;;;;;;;0.40;0.40;;;;;;;14.66;81.05;98591.19;4501989;31;34209;-68
2022/09/14 04:11:30;;;;;;;0.30;0.30;;;;;;;14.93;78.90;98589.22;4500793;31;33956;-74
2022/09/14 04:14:02;;;;;;;0.50;0.50;;;;;;;14.73;80.06;98592.66;4487754;31;34931;-68
2022/09/14 04:16:30;;;;;;;0.40;0.40;;;;;;;15.43;76.72;98595.91;4495598;31;34383;-75
2022/09/14 04:18:58;;;;;;;3.62;0.88;;;;;;;15.71;74.67;98579.84;4485811;32;33512;-73
2022/09/14 04:21:26;;;;;;;0.25;0.25;;;;;;;14.75;79.02;98572.47;4485789;32;33804;-72
2022/09/14 04:23:56;;;;;;;0.30;0.30;;;;;;;15.30;76.92;98572.84;4484517;32;35131;-74
2022/09/14 04:26:44;;;;;;;0.98;0.82;;;;;;;15.33;77.35;98564.81;4929972;26;35282;-77
2022/09/14 04:29:13;;;;;;;0.30;0.30;;;;;;;15.71;75.06;98564.94;4466437;32;33320;-76
2022/09/14 04:31:41;;;;;;;1.95;1.30;;;;;;;15.10;78.22;98567.56;4454627;32;33712;-77
2022/09/14 04:34:12;;;;;;;0.95;0.95;;;;;;;14.79;80.41;98568.84;4454528;32;34996;-78
2022/09/14 04:36:40;;;;;;;0.28;0.28;;;;;;;15.54;77.19;98570.06;4456223;32;34363;-77
2022/09/14 04:39:10;;;;;;;0.32;0.32;;;;;;;15.79;75.41;98566.41;4456137;32;33351;-78
2022/09/14 04:41:38;;;;;;;0.47;0.47;;;;;;;15.61;75.71;98562.78;4455241;32;34808;-77
2022/09/14 04:44:06;;;;;;;0.90;0.90;;;;;;;14.76;81.09;98558.47;4470062;32;34844;-78
2022/09/14 04:46:34;;;;;;;0.43;0.43;;;;;;;15.52;78.26;98553.53;4455353;32;34370;-76
2022/09/14 04:49:02;;;;;;;1.65;1.48;;;;;;;15.11;79.66;98553.53;4442343;32;33703;-77
2022/09/14 04:51:32;;;;;;;0.20;0.20;;;;;;;15.30;79.42;98549.22;4469145;32;34197;-78
2022/09/14 04:54:01;;;;;;;0.95;0.95;;;;;;;16.14;75.09;98546.41;4469730;32;35136;-77
2022/09/14 04:56:31;;;;;;;0.30;0.30;;;;;;;16.01;75.64;98551.38;4455820;32;35127;-78
2022/09/14 04:59:03;;;;;;;1.08;1.08;;;;;;;14.74;82.33;98542.78;4455741;32;33539;-76
2022/09/14 05:01:37;;;;;;;0.50;0.50;;;;;;;14.56;84.32;98540.91;4455388;32;33993;-76
2022/09/14 05:04:07;;;;;;;0.40;0.40;;;;;;;15.56;79.50;98539.34;4455364;32;35006;-79
2022/09/14 05:06:38;;;;;;;0.73;0.73;;;;;;;15.14;80.75;98554.28;4455388;32;34367;-77
2022/09/14 05:09:12;;;;;;;0.20;0.20;;;;;;;14.74;85.06;98544.56;4470029;32;33490;-77
2022/09/14 05:11:40;;;;;;;0.20;0.20;;;;;;;15.65;80.29;98552.09;4467524;32;34839;-77
2022/09/14 05:14:10;;;;;;;0.20;0.20;;;;;;;15.12;82.73;98565.72;4455217;32;34442;-77
2022/09/14 05:16:40;;;;;;;0.43;0.43;;;;;;;15.43;82.86;98570.53;4469344;32;34246;-77
2022/09/14 05:19:12;;;;;;;0.57;0.57;;;;;;;15.16;85.49;98565.53;4448066;32;34356;-77
2022/09/14 05:21:42;;;;;;;0.40;0.40;;;;;;;15.26;84.66;98567.78;4449382;32;34797;-79
2022/09/14 05:24:13;;;;;;;0.40;0.40;;;;;;;15.14;85.83;98563.88;4448503;32;33616;-78
2022/09/14 05:26:42;;;;;;;0.60;0.60;;;;;;;15.45;84.53;98562.59;4460173;32;35160;-77
2022/09/14 05:29:12;;;;;;;1.25;1.23;;;;;;;16.53;78.57;98544.63;4459078;32;33280;-77
2022/09/14 05:31:40;;;;;;;0.30;0.30;;;;;;;15.98;80.00;98534.91;4446567;32;33908;-76
2022/09/14 05:34:09;;;;;;;0.20;0.20;;;;;;;16.93;75.06;98529.56;4468609;32;34990;-78
2022/09/14 05:36:38;;;;;;;0.47;0.47;;;;;;;16.26;78.47;98531.88;4456789;32;34529;-76
2022/09/14 05:39:07;;;;;;;0.22;0.22;;;;;;;16.41;75.62;98541.66;4471383;32;33518;-77
2022/09/14 05:41:36;;;;;;;0.95;0.95;;;;;;;16.03;75.59;98552.16;4470825;32;33869;-77
2022/09/14 05:44:05;;;;;;;0.30;0.30;;;;;;;16.53;73.99;98547.25;4471305;32;34926;-77
2022/09/14 05:46:33;;;;;;;1.52;0.62;;;;;;;16.72;74.43;98542.81;4470523;32;34385;-78
2022/09/14 05:49:01;;;;;;;0.65;0.65;;;;;;;16.53;73.70;98547.25;4440396;32;32698;-80
2022/09/14 05:51:29;;;;;;;0.82;0.82;;;;;;;16.92;72.56;98549.75;4467223;32;34771;-80
2022/09/14 05:53:58;;;;;;;0.57;0.57;;;;;;;17.08;72.46;98562.13;4455933;32;35414;-80
2022/09/14 05:56:27;;;;;;;0.77;0.77;;;;;;;17.28;72.06;98551.47;4456930;32;35207;-80
2022/09/14 05:58:57;;;;;;;0.80;0.80;;;;;;;17.79;69.27;98547.06;4444122;32;31996;-80
2022/09/14 06:01:29;;;;;;;0.82;0.82;;;;;;;17.99;70.05;98553.06;4470364;32;34801;-80
2022/09/14 06:03:59;;;;;;;0.40;0.40;;;;;;;17.77;69.53;98548.06;4471143;32;35148;-80
2022/09/14 06:06:28;;;;;;;1.50;1.00;;;;;;;18.36;67.76;98546.63;4456193;32;35162;-80
2022/09/14 06:08:57;;;;;;;0.75;0.75;;;;;;;18.40;66.17;98547.31;4470413;32;33515;-80
2022/09/14 06:11:28;;;;;;;0.32;0.32;;;;;;;18.44;65.89;98535.69;4456006;32;33992;-80
2022/09/14 06:13:57;;;;;;;0.35;0.35;;;;;;;17.99;67.92;98530.22;4457131;32;34881;-83
2022/09/14 06:16:26;;;;;;;4.12;0.90;;;;;;;17.92;68.18;98526.22;4456766;32;33704;-84
2022/09/14 06:18:56;;;;;;;1.05;1.05;;;;;;;18.67;65.97;98526.47;4456660;32;33446;-82
2022/09/14 06:21:29;;;;;;;0.73;0.73;;;;;;;19.34;64.01;98531.41;4456240;32;34810;-82
2022/09/14 06:23:57;;;;;;;0.80;0.80;;;;;;;19.49;61.58;98543.69;4456007;32;34760;-81
2022/09/14 06:26:25;;;;;;;0.50;0.50;;;;;;;18.88;65.04;98539.38;4457044;32;34560;-83
2022/09/14 06:28:54;;;;;;;0.28;0.28;;;;;;;19.28;62.50;98539.69;4456579;32;32988;-81
2022/09/14 06:31:23;;;;;;;0.40;0.40;;;;;;;18.76;64.09;98544.41;4456293;32;34322;-82
2022/09/14 06:33:52;;;;;;;1.02;0.90;;;;;;;18.51;65.35;98550.22;4452250;32;34925;-82
2022/09/14 06:36:22;;;;;;;0.30;0.30;;;;;;;19.30;62.26;98556.28;4455248;32;35041;-86
2022/09/14 06:38:50;;;;;;;1.98;1.42;;;;;;;18.20;66.09;98564.25;4463743;32;33483;-84
2022/09/14 06:41:22;;;;;;;0.43;0.43;;;;;;;18.55;63.82;98574.63;4469173;32;33494;-85
2022/09/14 06:43:51;;;;;;;0.50;0.50;;;;;;;19.16;62.79;98582.66;4470795;32;35855;-84
2022/09/14 06:46:22;;;;;;;1.30;1.20;;;;;;;19.11;63.07;98586.41;4456093;32;34404;-80
2022/09/14 06:48:58;;;;;;;0.20;0.20;;;;;;;18.24;65.75;98572.81;4457271;32;34225;-82
2022/09/14 06:51:31;;;;;;;0.65;0.60;;;;;;;18.56;62.98;98582.47;4444679;32;34826;-82
2022/09/14 06:54:00;;;;;;;0.22;0.22;;;;;;;19.32;60.96;98580.81;4453855;32;34996;-80
2022/09/14 06:56:32;;;;;;;0.68;0.68;;;;;;;19.18;63.01;98572.84;4453852;32;34359;-83
2022/09/14 06:59:00;;;;;;;0.60;0.60;;;;;;;17.68;69.96;98564.34;4470414;32;33383;-89
2022/09/14 07:01:30;;;;;;;0.75;0.75;;;;;;;17.93;70.38;98559.53;4456188;32;33043;-88
2022/09/14 07:04:00;;;;;;;0.40;0.40;;;;;;;18.35;68.19;98538.81;4470559;32;34983;-86
2022/09/14 07:06:31;;;;;;;0.30;0.30;;;;;;;17.50;77.71;98545.94;4457742;32;34113;-90
2022/09/14 07:09:02;;;;;;;0.60;0.60;;;;;;;17.68;74.92;98538.00;4456026;32;33142;-92
2022/09/14 07:11:31;;;;;;;0.37;0.37;;;;;;;18.21;71.49;98541.38;4444992;32;33274;-84
2022/09/14 07:13:59;;;;;;;0.73;0.60;;;;;;;17.80;75.06;98553.16;4470383;32;35832;-89
2022/09/14 07:16:29;;;;;;;0.25;0.25;;;;;;;17.43;79.40;98570.88;4470573;32;35104;-85
2022/09/14 07:19:00;;;;;;;2.35;1.48;;;;;;;18.68;70.93;98573.00;4455655;32;34160;-83
2022/09/14 07:21:31;;;;;;;0.45;0.45;;;;;;;18.16;69.08;98571.47;4457490;32;33592;-85
2022/09/14 07:24:02;;;;;;;0.65;0.65;;;;;;;17.82;73.71;98572.38;4470467;32;34903;-83
2022/09/14 07:26:38;;;;;;;0.57;0.57;;;;;;;18.85;69.63;98568.59;4469751;32;33799;-81
2022/09/14 07:29:10;;;;;;;5.07;0.55;;;;;;;18.62;70.85;98565.44;4456641;32;33343;-84
2022/09/14 07:31:42;;;;;;;0.98;0.98;;;;;;;19.17;66.64;98557.97;4455939;32;34696;-82
2022/09/14 07:34:14;;;;;;;0.70;0.45;;;;;;;19.05;68.12;98565.66;4456428;32;34872;-82
2022/09/14 07:36:46;;;;;;;0.93;0.93;;;;;;;18.29;71.82;98561.09;4470511;32;34412;-82
2022/09/14 07:39:16;;;;;;;0.47;0.47;;;;;;;18.65;71.46;98567.87;4455994;32;33323;-81
2022/09/14 07:41:46;;;;;;;0.60;0.60;;;;;;;17.99;74.57;98564.44;4440488;32;34001;-82
2022/09/14 07:44:15;;;;;;;1.45;1.17;;;;;;;18.50;73.43;98559.06;4456200;32;34933;-82
2022/09/14 07:46:44;;;;;;;0.40;0.40;;;;;;;18.31;73.38;98548.69;4456324;32;35215;-82
2022/09/14 07:49:14;;;;;;;0.80;0.80;;;;;;;18.62;72.56;98546.97;4456305;32;33743;-82
2022/09/14 07:51:43;;;;;;;2.10;1.23;;;;;;;18.58;72.39;98550.72;4454695;32;33984;-83
2022/09/14 07:54:13;;;;;;;0.30;0.30;;;;;;;18.68;74.69;98549.25;4456251;32;34207;-84
2022/09/14 07:56:42;;;;;;;0.50;0.50;;;;;;;18.95;74.02;98548.66;4456407;32;34301;-82
2022/09/14 07:59:11;;;;;;;1.80;1.65;;;;;;;18.56;73.48;98542.91;4469766;32;33423;-81
2022/09/14 08:02:00;;;;;;;0.40;0.40;;;;;;;19.08;70.66;98543.53;4470127;32;33555;-81
2022/09/14 08:04:28;;;;;;;0.55;0.55;;;;;;;18.76;73.11;98525.94;4469525;32;35909;-81
2022/09/14 08:06:56;;;;;;;1.17;1.08;;;;;;;18.62;74.05;98507.44;4455759;32;34202;-81
2022/09/14 08:09:24;;;;;;;1.25;0.52;;;;;;;18.73;73.32;98518.19;4441616;32;33164;-81
2022/09/14 08:11:52;;;;;;;0.85;0.85;;;;;;;19.31;71.83;98534.25;4454868;32;34595;-81
2022/09/14 08:14:20;;;;;;;0.30;0.30;;;;;;;19.59;70.97;98530.81;4468841;32;34948;-82
2022/09/14 08:16:49;;;;;;;1.27;0.75;;;;;;;19.72;69.78;98522.97;4465829;32;34517;-82
2022/09/14 08:19:19;;;;;;;0.15;0.15;;;;;;;19.10;72.69;98529.28;4468973;32;33728;-83
2022/09/14 08:21:51;;;;;;;2.20;1.87;;;;;;;19.08;73.10;98525.06;4470091;32;34877;-83
2022/09/14 08:24:21;;;;;;;0.52;0.52;;;;;;;19.39;71.52;98526.69;4470199;32;35225;-84
2022/09/14 08:26:49;;;;;;;1.00;1.00;;;;;;;20.51;66.95;98526.03;4469451;32;34502;-83
2022/09/14 08:29:18;;;;;;;1.12;0.88;;;;;;;19.97;67.66;98516.19;4436995;32;33429;-83
2022/09/14 08:31:46;;;;;;;1.75;1.58;;;;;;;20.16;68.21;98506.16;4437096;32;33952;-83
2022/09/14 08:34:15;;;;;;;1.37;1.25;;;;;;;21.38;62.49;98493.72;4424486;32;34950;-83
2022/09/14 08:36:45;;;;;;;1.02;0.93;;;;;;;21.66;62.44;98493.66;4436548;32;34622;-84
2022/09/14 08:39:14;;;;;;;0.20;0.20;;;;;;;20.82;63.87;98501.06;4436003;32;34414;-82
2022/09/14 08:41:45;;;;;;;1.27;1.17;;;;;;;21.20;66.69;98502.94;4437981;32;34157;-84
2022/09/14 08:44:41;;;;;;;0.77;0.77;;;;;;;21.94;62.89;98503.16;4439117;32;36021;-82
2022/09/14 08:47:25;;;;;;;0.88;0.62;;;;;;;21.97;61.54;98502.94;4438031;32;34447;-82
2022/09/14 08:50:08;;;;;;;1.98;1.62;;;;;;;21.95;59.68;98510.16;4438257;32;34274;-82
2022/09/14 08:52:37;;;;;;;2.28;1.67;;;;;;;22.35;63.11;98504.69;4438878;32;33896;-83
2022/09/14 08:55:44;;;;;;;2.08;1.23;;;;;;;22.31;59.32;98500.56;4437278;32;35226;-82
2022/09/14 08:58:29;;;;;;;2.12;1.62;;;;;;;22.09;60.94;98501.22;4437928;32;34640;-83
2022/09/14 09:01:32;;;;;;;0.50;0.50;;;;;;;22.80;56.36;98502.25;4438171;32;33569;-83
2022/09/14 09:04:19;;;;;;;0.77;0.77;;;;;;;21.81;61.79;98502.31;4437116;32;34700;-83
2022/09/14 09:07:07;;;;;;;3.00;2.28;;;;;;;22.21;59.94;98499.50;4438458;32;35158;-81
2022/09/14 09:09:44;;;;;;;1.92;1.73;;;;;;;21.94;60.85;98492.56;4435390;32;34481;-81
2022/09/14 09:12:21;;;;;;;1.48;0.88;;;;;;;23.01;59.75;98498.94;4437921;32;33570;-83
2022/09/14 09:14:57;;;;;;;0.40;0.40;;;;;;;22.23;60.90;98502.88;4437834;32;33964;-84
2022/09/14 09:17:40;;;;;;;0.68;0.68;;;;;;;22.12;60.86;98515.09;4436359;32;35018;-84
2022/09/14 09:20:16;;;;;;;0.77;0.77;;;;;;;21.53;61.32;98515.72;4438746;32;34338;-84
2022/09/14 09:22:48;;;;;;;0.82;0.82;;;;;;;21.91;61.37;98524.59;4437295;32;33399;-83
2022/09/14 09:25:22;;;;;;;0.47;0.47;;;;;;;21.84;61.72;98526.81;4437087;32;34768;-82
2022/09/14 09:27:51;;;;;;;0.55;0.47;;;;;;;21.78;60.50;98524.59;4441501;32;35969;-83
2022/09/14 09:30:19;;;;;;;1.35;1.25;;;;;;;22.28;60.65;98533.44;4452464;32;34160;-82
2022/09/14 09:32:47;;;;;;;0.37;0.37;;;;;;;22.82;58.47;98532.19;4449030;32;33643;-83
2022/09/14 09:35:21;;;;;;;1.33;1.23;;;;;;;23.06;59.89;98534.81;4451874;32;34801;-83
2022/09/14 09:37:50;;;;;;;0.30;0.30;;;;;;;23.29;56.40;98545.53;4451096;32;35034;-82
2022/09/14 09:40:31;;;;;;;1.12;0.75;;;;;;;22.74;58.39;98539.84;4453385;32;34417;-83
2022/09/14 09:43:08;;;;;;;1.25;1.15;;;;;;;22.61;59.25;98533.78;4452357;32;34165;-83
2022/09/14 09:45:53;;;;;;;1.55;1.17;;;;;;;23.14;58.29;98536.09;4451121;32;34046;-81
2022/09/14 09:48:25;;;;;;;0.95;0.93;;;;;;;22.98;59.95;98533.72;4451774;32;36014;-80
2022/09/14 09:51:00;;;;;;;0.68;0.68;;;;;;;23.41;57.88;98533.12;4453525;32;34329;-83
2022/09/14 09:53:30;;;;;;;0.68;0.65;;;;;;;23.76;56.47;98529.56;4452370;32;33429;-83
2022/09/14 09:55:58;;;;;;;0.60;0.60;;;;;;;24.23;56.64;98532.97;4452196;32;34463;-83
2022/09/14 09:58:37;;;;;;;2.70;2.50;;;;;;;24.20;56.44;98531.38;4437892;32;35879;-83
2022/09/14 10:01:08;;;;;;;0.80;0.80;;;;;;;23.81;56.95;98540.72;4450678;32;34298;-81
2022/09/14 10:03:40;;;;;;;0.70;0.70;;;;;;;24.56;53.39;98541.88;4452160;32;33392;-84
2022/09/14 10:06:10;;;;;;;1.12;1.10;;;;;;;24.22;53.28;98545.41;4451127;32;34870;-80
2022/09/14 10:08:46;;;;;;;2.87;1.90;;;;;;;23.93;56.69;98558.38;4450261;32;35180;-81
2022/09/14 10:11:36;;;;;;;5.45;1.08;;;;;;;24.13;58.25;98559.44;4451954;32;35277;-80
2022/09/14 10:14:16;;;;;;;0.77;0.77;;;;;;;24.56;53.90;98557.84;4452277;32;34264;-81
2022/09/14 10:16:45;;;;;;;0.57;0.57;;;;;;;24.81;54.26;98551.34;4450422;32;33945;-79
2022/09/14 10:19:24;;;;;;;3.30;1.45;;;;;;;24.50;55.70;98550.34;4451221;32;35041;-80
2022/09/14 10:22:14;;;;;;;1.20;1.10;;;;;;;24.38;55.37;98546.84;4438863;32;34235;-83
2022/09/14 10:24:53;;;;;;;1.37;1.27;;;;;;;24.15;55.33;98543.38;4455541;32;33506;-79
2022/09/14 10:27:38;;;;;;;1.92;0.75;;;;;;;24.37;55.94;98531.84;4458837;32;34841;-78
2022/09/14 10:30:18;;;;;;;1.17;1.08;;;;;;;24.80;53.92;98531.03;4445119;32;34262;-80
2022/09/14 10:33:08;;;;;;;0.62;0.62;;;;;;;25.05;57.08;98521.00;4458655;32;35239;-82
2022/09/14 10:36:12;;;;;;;16.85;1.40;;;;;;;24.45;56.19;98523.25;4456039;32;32293;-81
2022/09/14 10:39:07;;;;;;;1.45;1.35;;;;;;;24.41;55.57;98512.84;4469410;32;34746;-81
2022/09/14 10:41:41;;;;;;;1.08;1.00;;;;;;;24.03;56.77;98527.41;4470924;32;35038;-78
2022/09/14 10:44:20;;;;;;;1.00;0.93;;;;;;;24.03;56.25;98530.06;4457111;32;34094;-81
2022/09/14 10:46:57;;;;;;;2.17;0.93;;;;;;;23.98;55.87;98523.41;4457142;32;34253;-80
2022/09/14 10:49:46;;;;;;;0.70;0.70;;;;;;;24.29;55.75;98521.81;4469767;32;33838;-80
2022/09/14 10:52:17;;;;;;;0.32;0.32;;;;;;;24.67;54.41;98525.88;4469849;32;35078;-81
2022/09/14 10:55:01;;;;;;;0.43;0.43;;;;;;;24.55;54.33;98529.56;4469917;32;35223;-82
2022/09/14 10:57:38;;;;;;;1.12;0.75;;;;;;;24.60;54.63;98528.19;4470593;32;33554;-84
2022/09/14 11:00:19;;;;;;;0.20;0.20;;;;;;;24.35;54.94;98539.09;4469949;32;34645;-81
2022/09/14 11:02:58;;;;;;;0.90;0.82;;;;;;;24.12;56.11;98540.94;4456603;32;35822;-82
2022/09/14 11:05:42;;;;;;;0.75;0.73;;;;;;;24.66;54.13;98534.84;4469357;32;34332;-81
2022/09/14 11:08:40;;;;;;;0.70;0.70;;;;;;;24.36;56.58;98525.66;4456380;32;33397;-84
2022/09/14 11:11:50;;;;;;;0.83;0.83;;;;;;;24.48;55.37;98522.97;4469913;32;33967;-79
2022/09/14 11:14:24;;;;;;;0.90;0.90;;;;;;;23.96;56.53;98531.50;4448412;32;34903;-80
2022/09/14 11:17:25;;;;;;;0.57;0.55;;;;;;;24.45;57.02;98509.94;4454764;32;34474;-82
2022/09/14 11:20:06;;;;;;;1.67;1.58;;;;;;;24.13;56.09;98513.38;4441042;32;34259;-81
2022/09/14 11:22:53;;;;;;;1.33;1.25;;;;;;;23.71;58.42;98513.97;4470540;32;32151;-81
2022/09/14 11:25:58;;;;;;;1.10;1.00;;;;;;;23.79;58.75;98513.34;4470555;32;34994;-80
2022/09/14 11:28:37;;;;;;;1.65;1.17;;;;;;;24.18;57.31;98519.19;4455633;32;34446;-83
2022/09/14 11:31:19;;;;;;;1.35;1.10;;;;;;;24.30;57.74;98526.19;4456297;32;33347;-81
2022/09/14 11:33:57;;;;;;;0.60;0.60;;;;;;;23.24;61.73;98529.09;4456276;32;34791;-81
2022/09/14 11:36:43;;;;;;;0.80;0.77;;;;;;;23.75;59.94;98517.22;4456501;32;35009;-81
2022/09/14 11:39:21;;;;;;;0.82;0.82;;;;;;;23.93;59.81;98510.50;4470049;32;34511;-81
2022/09/14 11:41:54;;;;;;;1.02;0.70;;;;;;;24.28;57.54;98506.81;4455465;32;34262;-82
2022/09/14 11:44:34;;;;;;;0.73;0.60;;;;;;;24.91;55.37;98495.53;4456380;32;34735;-80
2022/09/14 11:47:12;;;;;;;0.77;0.77;;;;;;;24.17;57.19;98488.22;4456275;32;34932;-83
2022/09/14 11:50:02;;;;;;;0.95;0.88;;;;;;;24.21;59.74;98494.97;4455659;32;35484;-80
2022/09/14 11:52:31;;;;;;;0.68;0.68;;;;;;;24.54;58.78;98498.56;4470453;32;33444;-83
2022/09/14 11:55:01;;;;;;;3.20;1.85;;;;;;;24.92;56.07;98499.87;4469522;32;34547;-82
2022/09/14 11:57:31;;;;;;;0.37;0.37;;;;;;;24.54;57.35;98504.72;4455676;32;35065;-80
2022/09/14 12:00:08;;;;;;;0.80;0.80;;;;;;;24.71;56.24;98498.03;4469595;32;34091;-85
2022/09/14 12:02:37;;;;;;;1.00;0.85;;;;;;;24.93;55.22;98497.06;4470201;32;34165;-82
2022/09/14 12:05:09;;;;;;;0.98;0.55;;;;;;;24.84;55.39;98495.19;4470045;32;34850;-81